KJVW

John Bell Williams Airport

Raymond, Mississippi, USA
METAR KJVW 211615Z AUTO VRB06KT 10SM 05/M02 A3042 RMK AO2
Observed Flight Rules
Jan-21 @ 16:15 UTC (23 minutes ago)
Wind Visibility
Variable at 6 knots 10 miles
Temperatures Readings
Current 5°C / 41°F
Dewpoint -2°C / 28°F
Humidity 61%
Altimeter 30.42" Hg
Pressure 1030.11 hPa
Elevation 76
METAR KJVW 211615Z AUTO VRB06KT 10SM 05/M02 A3042 RMK AO2
Observed Flight Rules
Jan-21 @ 16:15 UTC
(23 minutes ago)
Wind Visibility
Variable at 6 knots 10 miles
Temperature Dewpoint
5°C / 41°F -2°C / 28°F
Humidity Altimeter Pressure
61% 30.42" Hg 1030.11 hPa